createdAt,value
2023-05-15T00:01:18.594Z,99.90
2023-05-15T00:03:45.549Z,99.90
2023-05-15T00:06:12.741Z,99.90
2023-05-15T00:08:39.704Z,99.90
2023-05-15T00:11:07.010Z,99.90
2023-05-15T00:13:33.831Z,99.90
2023-05-15T00:16:00.776Z,99.90
2023-05-15T00:18:27.999Z,99.90
2023-05-15T00:20:54.897Z,99.90
2023-05-15T00:23:21.994Z,99.90
2023-05-15T00:25:49.014Z,99.90
2023-05-15T00:28:15.789Z,99.90
2023-05-15T00:30:43.036Z,99.90
2023-05-15T00:33:10.329Z,99.90
2023-05-15T00:35:37.550Z,99.90
2023-05-15T00:38:04.559Z,99.90
2023-05-15T00:40:31.872Z,99.90
2023-05-15T00:42:58.738Z,99.90
2023-05-15T00:45:26.077Z,99.90
2023-05-15T00:47:53.554Z,99.90
2023-05-15T00:50:20.505Z,99.90
2023-05-15T00:52:47.633Z,99.90
2023-05-15T00:55:14.616Z,99.90
2023-05-15T00:57:42.617Z,99.90
2023-05-15T01:00:10.555Z,99.90
2023-05-15T01:02:37.764Z,99.90
2023-05-15T01:05:07.760Z,99.90
2023-05-15T01:07:38.692Z,99.90
2023-05-15T01:10:06.097Z,99.90
2023-05-15T01:12:33.384Z,99.90
2023-05-15T01:15:00.263Z,99.90
2023-05-15T01:17:27.853Z,99.90
2023-05-15T01:19:55.216Z,99.90
2023-05-15T01:22:47.449Z,99.90
2023-05-15T01:25:55.038Z,99.90
2023-05-15T01:28:31.795Z,99.90
2023-05-15T01:30:59.180Z,99.90
2023-05-15T01:33:32.194Z,99.90
2023-05-15T01:36:13.211Z,99.90
2023-05-15T01:38:46.728Z,99.90
2023-05-15T01:41:21.529Z,99.90
2023-05-15T01:43:55.612Z,99.90
2023-05-15T01:46:23.183Z,99.90
2023-05-15T01:48:50.105Z,99.90
2023-05-15T01:51:17.092Z,99.90
2023-05-15T01:53:44.641Z,99.90
2023-05-15T01:56:14.489Z,99.90
2023-05-15T01:58:41.830Z,99.90
2023-05-15T02:01:08.820Z,99.90
2023-05-15T02:03:35.866Z,99.90
2023-05-15T02:06:03.922Z,99.90
2023-05-15T02:08:33.341Z,99.90
2023-05-15T02:11:03.744Z,99.90
2023-05-15T02:13:31.950Z,99.90
2023-05-15T02:15:59.005Z,99.90
2023-05-15T02:18:26.082Z,99.90
2023-05-15T02:20:53.098Z,99.90
2023-05-15T02:23:22.039Z,99.90
2023-05-15T02:26:05.319Z,99.90
2023-05-15T02:28:37.368Z,99.90
2023-05-15T02:31:32.736Z,99.90
2023-05-15T02:34:04.942Z,99.90
2023-05-15T02:36:33.514Z,99.90
2023-05-15T02:39:01.051Z,99.90
2023-05-15T02:41:27.915Z,99.90
2023-05-15T02:43:55.845Z,99.90
2023-05-15T02:46:24.433Z,99.90
2023-05-15T02:48:52.322Z,99.90
2023-05-15T02:51:19.291Z,99.90
2023-05-15T02:53:46.549Z,99.90
2023-05-15T02:56:13.452Z,99.90
2023-05-15T02:58:40.916Z,99.90
2023-05-15T03:01:07.832Z,99.90
2023-05-15T03:03:34.962Z,99.90
2023-05-15T03:06:01.842Z,99.90
2023-05-15T03:08:29.195Z,99.90
2023-05-15T03:10:56.042Z,99.90
2023-05-15T03:13:22.933Z,99.90
2023-05-15T03:15:49.992Z,99.90
2023-05-15T03:18:18.933Z,99.90
2023-05-15T03:20:48.093Z,99.90
2023-05-15T03:23:15.175Z,99.90
2023-05-15T03:25:42.065Z,99.90
2023-05-15T03:28:08.900Z,99.90
2023-05-15T03:30:38.607Z,99.90
2023-05-15T03:33:05.802Z,99.90
2023-05-15T03:35:32.802Z,99.90
2023-05-15T03:37:59.965Z,99.90
2023-05-15T03:40:26.777Z,99.90
2023-05-15T03:42:53.949Z,99.90
2023-05-15T03:45:21.427Z,99.90
2023-05-15T03:47:48.807Z,99.90
2023-05-15T03:50:16.134Z,99.90
2023-05-15T03:52:43.339Z,99.90
2023-05-15T03:55:10.223Z,99.90
2023-05-15T03:57:37.405Z,99.90
2023-05-15T04:00:09.938Z,99.90
2023-05-15T04:02:37.669Z,99.90
2023-05-15T04:05:05.317Z,99.90
2023-05-15T04:07:33.574Z,99.90
2023-05-15T04:10:03.253Z,99.90
2023-05-15T04:12:32.832Z,99.90
2023-05-15T04:15:13.585Z,99.90
2023-05-15T04:17:40.645Z,99.90
2023-05-15T04:20:08.643Z,99.90
2023-05-15T04:22:35.444Z,99.90
2023-05-15T04:25:02.197Z,99.90
2023-05-15T04:27:29.002Z,99.90
2023-05-15T04:29:56.095Z,99.90
2023-05-15T04:32:23.236Z,99.90
2023-05-15T04:34:50.063Z,99.90
2023-05-15T04:37:17.149Z,99.90
2023-05-15T04:39:43.872Z,99.90
2023-05-15T04:42:10.767Z,99.90
2023-05-15T04:44:38.026Z,99.90
2023-05-15T04:47:05.170Z,99.90
2023-05-15T04:49:31.958Z,99.90
2023-05-15T04:51:58.910Z,99.90
2023-05-15T04:54:26.027Z,99.90
2023-05-15T04:56:52.887Z,99.90
2023-05-15T04:59:19.801Z,99.90
2023-05-15T05:01:46.996Z,99.90
2023-05-15T05:04:14.778Z,99.90
2023-05-15T05:06:41.807Z,99.90
2023-05-15T05:09:08.985Z,99.90
2023-05-15T05:11:36.143Z,99.90
2023-05-15T05:14:03.727Z,99.90
2023-05-15T05:16:30.810Z,99.90
2023-05-15T05:18:57.684Z,99.90
2023-05-15T05:21:24.563Z,99.90
2023-05-15T05:23:51.807Z,99.90
2023-05-15T05:26:18.973Z,99.90
2023-05-15T05:28:45.882Z,99.90
2023-05-15T05:31:12.809Z,99.90
2023-05-15T05:33:39.984Z,99.90
2023-05-15T05:36:07.124Z,99.90
2023-05-15T05:38:34.417Z,99.90
2023-05-15T05:41:01.434Z,99.90
2023-05-15T05:43:28.249Z,99.90
2023-05-15T05:45:55.316Z,99.90
2023-05-15T05:48:22.127Z,99.90
2023-05-15T05:50:49.271Z,99.90
2023-05-15T05:53:16.267Z,99.90
2023-05-15T05:55:43.304Z,99.90
2023-05-15T05:58:23.996Z,99.90
2023-05-15T06:00:51.619Z,99.90
2023-05-15T06:03:19.568Z,99.90
2023-05-15T06:05:46.825Z,99.90
2023-05-15T06:08:15.163Z,99.90
2023-05-15T06:10:42.444Z,99.90
2023-05-15T06:13:09.428Z,99.90
2023-05-15T06:15:37.629Z,99.90
2023-05-15T06:18:04.704Z,99.90
2023-05-15T06:20:31.803Z,99.90
2023-05-15T06:22:58.711Z,99.90
2023-05-15T06:25:25.875Z,99.90
2023-05-15T06:27:52.749Z,99.90
2023-05-15T06:30:19.788Z,99.90
2023-05-15T06:32:47.399Z,99.90
2023-05-15T06:35:14.733Z,99.90
2023-05-15T06:37:41.803Z,99.90
2023-05-15T06:40:09.320Z,99.90
2023-05-15T06:42:36.290Z,99.90
2023-05-15T06:45:03.297Z,99.90
2023-05-15T06:47:30.371Z,99.90
2023-05-15T06:49:57.735Z,99.90
2023-05-15T06:52:24.699Z,99.90
2023-05-15T06:54:52.411Z,99.90
2023-05-15T06:57:19.963Z,99.90
2023-05-15T06:59:47.023Z,99.90
2023-05-15T07:02:14.325Z,99.90
2023-05-15T07:04:41.394Z,99.90
2023-05-15T07:07:08.477Z,99.90
2023-05-15T07:09:35.608Z,99.90
2023-05-15T07:12:02.627Z,99.90
2023-05-15T07:14:29.851Z,99.90
2023-05-15T07:16:56.903Z,99.90
2023-05-15T07:19:24.060Z,99.90
2023-05-15T07:21:51.463Z,99.90
2023-05-15T07:24:18.338Z,99.90
2023-05-15T07:26:57.376Z,99.90
2023-05-15T07:29:26.400Z,99.90
2023-05-15T07:31:53.623Z,99.90
2023-05-15T07:34:21.165Z,99.90
2023-05-15T07:36:48.011Z,99.90
2023-05-15T07:39:15.080Z,99.90
2023-05-15T07:41:41.916Z,99.90
2023-05-15T07:44:09.167Z,99.90
2023-05-15T07:46:36.435Z,99.90
2023-05-15T07:49:03.299Z,99.90
2023-05-15T07:51:30.317Z,99.90
2023-05-15T07:53:57.668Z,99.90
2023-05-15T07:56:24.603Z,99.90
2023-05-15T07:58:51.964Z,99.90
2023-05-15T08:01:21.914Z,99.90
2023-05-15T08:03:49.156Z,99.90
2023-05-15T08:06:16.685Z,99.90
2023-05-15T08:08:43.703Z,99.90
2023-05-15T08:11:10.923Z,99.90
2023-05-15T08:13:37.664Z,99.90
2023-05-15T08:16:05.599Z,99.90
2023-05-15T08:18:32.920Z,99.90
2023-05-15T08:21:00.061Z,99.90
2023-05-15T08:23:27.019Z,99.90
2023-05-15T08:25:53.828Z,99.90
2023-05-15T08:28:20.903Z,99.90
2023-05-15T08:30:47.702Z,99.70
2023-05-15T08:33:14.492Z,98.70
2023-05-15T08:35:41.684Z,98.30
2023-05-15T08:38:08.656Z,98.10
2023-05-15T08:40:39.881Z,98.00
2023-05-15T08:43:13.879Z,97.60
2023-05-15T08:45:41.792Z,97.30
2023-05-15T08:48:11.824Z,97.30
2023-05-15T08:50:39.898Z,97.20
2023-05-15T08:53:06.791Z,97.10
2023-05-15T08:55:33.950Z,97.00
2023-05-15T08:58:00.939Z,95.90
2023-05-15T09:00:27.864Z,96.00
2023-05-15T09:02:55.520Z,95.40
2023-05-15T09:05:22.507Z,95.10
2023-05-15T09:07:49.831Z,94.90
2023-05-15T09:10:16.926Z,94.80
2023-05-15T09:12:44.691Z,94.60
2023-05-15T09:15:18.218Z,94.40
2023-05-15T09:17:45.749Z,93.90
2023-05-15T09:20:33.668Z,92.80
2023-05-15T09:23:02.813Z,92.60
2023-05-15T09:25:39.638Z,92.00
2023-05-15T09:28:08.572Z,91.80
2023-05-15T09:30:39.555Z,91.40
2023-05-15T09:33:06.554Z,91.30
2023-05-15T09:35:35.821Z,90.60
2023-05-15T09:38:08.094Z,90.50
2023-05-15T09:40:35.304Z,90.20
2023-05-15T09:43:02.621Z,90.00
2023-05-15T09:45:30.674Z,87.40
2023-05-15T09:48:00.676Z,87.40
2023-05-15T09:50:38.369Z,86.40
2023-05-15T09:53:06.212Z,86.50
2023-05-15T09:55:34.716Z,85.60
2023-05-15T09:58:15.954Z,85.70
2023-05-15T10:00:48.144Z,85.50
2023-05-15T10:03:22.296Z,84.90
2023-05-15T10:05:49.605Z,84.30
2023-05-15T10:08:20.398Z,83.20
2023-05-15T10:10:48.825Z,81.80
2023-05-15T10:13:15.735Z,81.90
2023-05-15T10:15:43.247Z,81.50
2023-05-15T10:18:10.574Z,81.20
2023-05-15T10:20:37.553Z,80.60
2023-05-15T10:25:55.762Z,80.00
2023-05-15T10:28:22.984Z,80.00
2023-05-15T10:30:49.893Z,80.10
2023-05-15T10:33:16.898Z,80.50
2023-05-15T10:35:44.197Z,80.70
2023-05-15T10:38:11.286Z,80.30
2023-05-15T10:40:39.755Z,80.00
2023-05-15T10:43:06.969Z,80.10
2023-05-15T10:45:34.084Z,79.80
2023-05-15T10:48:01.274Z,79.10
2023-05-15T10:50:28.149Z,78.50
2023-05-15T10:52:57.911Z,78.70
2023-05-15T10:55:25.045Z,78.70
2023-05-15T10:57:52.413Z,78.80
2023-05-15T11:00:22.476Z,79.10
2023-05-15T11:02:50.909Z,78.60
2023-05-15T11:05:18.256Z,78.40
2023-05-15T11:08:23.733Z,78.50
2023-05-15T11:10:50.940Z,78.80
2023-05-15T11:13:17.759Z,79.00
2023-05-15T11:15:46.244Z,78.60
2023-05-15T11:18:13.511Z,78.90
2023-05-15T11:20:49.769Z,78.60
2023-05-15T11:23:16.672Z,78.20
2023-05-15T11:25:43.438Z,77.40
2023-05-15T11:28:24.640Z,77.60
2023-05-15T11:30:52.712Z,77.80
2023-05-15T11:33:20.982Z,78.60
2023-05-15T11:35:48.442Z,78.30
2023-05-15T11:38:22.415Z,79.10
2023-05-15T11:41:03.029Z,78.40
2023-05-15T11:43:31.641Z,78.60
2023-05-15T11:46:04.815Z,78.90
2023-05-15T11:48:42.075Z,79.20
2023-05-15T11:51:20.160Z,79.50
2023-05-15T11:53:47.506Z,79.20
2023-05-15T11:56:23.058Z,79.00
2023-05-15T11:58:55.980Z,78.60
2023-05-15T12:01:23.062Z,78.00
2023-05-15T12:03:51.124Z,77.20
2023-05-15T12:06:18.152Z,77.70
2023-05-15T12:08:45.721Z,76.60
2023-05-15T12:11:12.747Z,76.10
2023-05-15T12:13:39.595Z,76.80
2023-05-15T12:16:06.741Z,76.00
2023-05-15T12:18:33.873Z,76.20
2023-05-15T12:21:01.444Z,76.50
2023-05-15T12:23:28.992Z,76.60
2023-05-15T12:26:02.167Z,76.90
2023-05-15T12:28:30.301Z,77.30
2023-05-15T12:30:57.602Z,77.80
2023-05-15T12:33:24.774Z,78.10
2023-05-15T12:35:55.786Z,77.80
2023-05-15T12:38:26.340Z,78.40
2023-05-15T12:40:53.881Z,79.20
2023-05-15T12:43:23.964Z,81.10
2023-05-15T12:45:53.043Z,82.50
2023-05-15T12:48:20.537Z,83.40
2023-05-15T12:50:47.829Z,86.00
2023-05-15T12:53:16.370Z,88.00
2023-05-15T12:55:46.773Z,88.70
2023-05-15T12:58:15.616Z,90.20
2023-05-15T13:00:46.673Z,92.10
2023-05-15T13:03:14.245Z,94.40
2023-05-15T13:05:45.941Z,97.10
2023-05-15T13:08:17.801Z,99.90
2023-05-15T13:10:45.859Z,99.90
2023-05-15T13:13:12.927Z,99.90
2023-05-15T13:15:40.841Z,99.90
2023-05-15T13:18:09.791Z,99.90
2023-05-15T13:20:43.718Z,99.90
2023-05-15T13:23:11.968Z,99.90
2023-05-15T13:25:38.880Z,99.90
2023-05-15T13:28:06.835Z,99.90
2023-05-15T13:30:34.409Z,99.90
2023-05-15T13:33:02.227Z,99.90
2023-05-15T13:35:29.258Z,99.90
2023-05-15T13:37:56.956Z,99.90
2023-05-15T13:40:24.633Z,99.90
2023-05-15T13:42:51.718Z,99.90
2023-05-15T13:45:19.159Z,99.90
2023-05-15T13:47:46.286Z,99.90
2023-05-15T13:50:14.271Z,99.90
2023-05-15T13:52:42.268Z,99.90
2023-05-15T13:55:10.224Z,99.90
2023-05-15T13:57:41.094Z,99.90
2023-05-15T14:00:12.196Z,99.90
2023-05-15T14:02:43.830Z,99.90
2023-05-15T14:05:12.953Z,99.90
2023-05-15T14:07:40.408Z,99.90
2023-05-15T14:10:08.177Z,99.90
2023-05-15T14:12:36.424Z,99.90
2023-05-15T14:15:03.733Z,99.90
2023-05-15T14:17:30.992Z,99.90
2023-05-15T14:19:57.817Z,99.90
2023-05-15T14:22:25.138Z,99.90
2023-05-15T14:24:53.116Z,99.90
2023-05-15T14:27:20.332Z,99.90
2023-05-15T14:29:49.671Z,99.90
2023-05-15T14:32:17.351Z,99.90
2023-05-15T14:34:44.638Z,99.90
2023-05-15T14:37:11.799Z,99.90
2023-05-15T14:39:39.472Z,99.90
2023-05-15T14:42:07.065Z,99.90
2023-05-15T14:44:37.141Z,99.90
2023-05-15T14:47:13.001Z,99.90
2023-05-15T14:49:40.799Z,99.90
2023-05-15T14:52:09.061Z,99.90
2023-05-15T14:54:36.407Z,99.90
2023-05-15T14:57:04.056Z,99.90
2023-05-15T14:59:31.222Z,99.90
2023-05-15T15:01:58.688Z,99.90
2023-05-15T15:04:28.056Z,99.90
2023-05-15T15:06:57.843Z,99.90
2023-05-15T15:09:25.610Z,99.90
2023-05-15T15:11:54.641Z,99.90
2023-05-15T15:14:21.943Z,99.90
2023-05-15T15:16:48.924Z,99.90
2023-05-15T15:19:18.984Z,99.90
2023-05-15T15:21:47.277Z,99.90
2023-05-15T15:24:14.563Z,99.90
2023-05-15T15:26:44.885Z,99.90
2023-05-15T15:29:12.226Z,99.90
2023-05-15T15:31:39.404Z,99.90
2023-05-15T15:34:09.140Z,99.90
2023-05-15T15:36:38.654Z,99.90
2023-05-15T15:39:06.212Z,99.90
2023-05-15T15:41:33.121Z,99.90
2023-05-15T15:44:00.034Z,99.90
2023-05-15T15:46:27.088Z,99.90
2023-05-15T15:48:54.210Z,99.90
2023-05-15T15:51:21.480Z,99.90
2023-05-15T15:53:48.362Z,99.90
2023-05-15T15:56:15.342Z,99.90
2023-05-15T15:58:42.337Z,99.90
2023-05-15T16:01:09.628Z,99.90
2023-05-15T16:03:36.677Z,99.90
2023-05-15T16:06:03.771Z,99.90
2023-05-15T16:08:30.861Z,99.90
2023-05-15T16:10:58.110Z,99.90
2023-05-15T16:13:25.045Z,99.90
2023-05-15T16:15:52.189Z,99.90
2023-05-15T16:21:04.106Z,99.90
2023-05-15T16:23:35.059Z,99.90
2023-05-15T16:26:06.379Z,99.90
2023-05-15T16:28:33.239Z,99.90
2023-05-15T16:31:00.418Z,99.90
2023-05-15T16:33:27.733Z,99.90
2023-05-15T16:35:55.108Z,99.90
2023-05-15T16:38:22.891Z,99.90
2023-05-15T16:40:49.773Z,99.90
2023-05-15T16:43:17.230Z,99.90
2023-05-15T16:45:46.971Z,99.90
2023-05-15T16:48:14.034Z,99.90
2023-05-15T16:50:43.168Z,99.90
2023-05-15T16:53:10.105Z,99.90
2023-05-15T16:55:38.270Z,99.90
2023-05-15T16:58:05.152Z,99.90
2023-05-15T17:00:32.068Z,99.90
2023-05-15T17:02:59.223Z,99.90
2023-05-15T17:05:26.133Z,99.90
2023-05-15T17:07:53.074Z,99.90
2023-05-15T17:10:20.067Z,99.90
2023-05-15T17:12:46.930Z,99.90
2023-05-15T17:15:14.227Z,99.90
2023-05-15T17:17:41.248Z,99.90
2023-05-15T17:20:08.873Z,99.90
2023-05-15T17:25:20.814Z,99.90
2023-05-15T17:27:47.642Z,99.90
2023-05-15T17:30:14.692Z,99.90
2023-05-15T17:32:41.767Z,99.90
2023-05-15T17:35:09.090Z,99.90
2023-05-15T17:37:35.937Z,99.90
2023-05-15T17:40:02.879Z,99.90
2023-05-15T17:42:29.872Z,99.90
2023-05-15T17:44:56.925Z,99.90
2023-05-15T17:47:23.953Z,99.90
2023-05-15T17:49:50.930Z,99.90
2023-05-15T17:52:18.170Z,99.90
2023-05-15T17:54:45.069Z,99.90
2023-05-15T17:57:12.111Z,99.90
2023-05-15T17:59:38.951Z,99.90
2023-05-15T18:02:06.233Z,99.90
2023-05-15T18:04:33.184Z,99.90
2023-05-15T18:07:00.136Z,99.90
2023-05-15T18:09:27.115Z,99.90
2023-05-15T18:11:54.005Z,99.90
2023-05-15T18:14:20.970Z,99.90
2023-05-15T18:16:47.827Z,99.90
2023-05-15T18:19:15.173Z,99.90
2023-05-15T18:21:42.147Z,99.90
2023-05-15T18:24:08.989Z,99.90
2023-05-15T18:26:35.952Z,99.90
2023-05-15T18:29:03.298Z,99.90
2023-05-15T18:31:30.279Z,99.90
2023-05-15T18:33:57.330Z,99.90
2023-05-15T18:36:24.270Z,99.90
2023-05-15T18:38:51.596Z,99.90
2023-05-15T18:41:18.436Z,99.90
2023-05-15T18:43:45.428Z,99.90
2023-05-15T18:46:12.298Z,99.90
2023-05-15T18:48:39.178Z,99.90
2023-05-15T18:51:06.337Z,99.90
2023-05-15T18:53:33.486Z,99.90
2023-05-15T18:56:01.252Z,99.90
2023-05-15T18:58:30.645Z,99.90
2023-05-15T19:00:57.814Z,99.90
2023-05-15T19:03:25.887Z,99.90
2023-05-15T19:05:53.394Z,99.90
2023-05-15T19:08:20.457Z,99.90
2023-05-15T19:10:51.123Z,99.90
2023-05-15T19:13:19.115Z,99.90
2023-05-15T19:15:55.059Z,99.90
2023-05-15T19:18:21.970Z,99.90
2023-05-15T19:20:56.755Z,99.90
2023-05-15T19:23:24.593Z,99.90
2023-05-15T19:25:51.836Z,99.90
2023-05-15T19:28:18.763Z,99.90
2023-05-15T19:30:45.681Z,99.90
2023-05-15T19:33:13.885Z,99.90
2023-05-15T19:35:40.789Z,99.90
2023-05-15T19:38:07.670Z,99.90
2023-05-15T19:40:35.844Z,99.90
2023-05-15T19:43:02.791Z,99.90
2023-05-15T19:45:30.829Z,99.90
2023-05-15T19:48:00.143Z,99.90
2023-05-15T19:50:27.551Z,99.90
2023-05-15T19:52:54.846Z,99.90
2023-05-15T19:55:21.851Z,99.90
2023-05-15T19:57:48.907Z,99.90
2023-05-15T20:00:16.317Z,99.90
2023-05-15T20:02:45.250Z,99.90
2023-05-15T20:05:12.462Z,99.90
2023-05-15T20:07:39.316Z,99.90
2023-05-15T20:10:07.644Z,99.90
2023-05-15T20:12:34.811Z,99.90
2023-05-15T20:15:02.107Z,99.90
2023-05-15T20:17:28.891Z,99.90
2023-05-15T20:19:59.387Z,99.90
2023-05-15T20:22:26.388Z,99.90
2023-05-15T20:24:53.347Z,99.90
2023-05-15T20:27:20.116Z,99.90
2023-05-15T20:29:47.007Z,99.90
2023-05-15T20:32:13.865Z,99.90
2023-05-15T20:34:42.685Z,99.90
2023-05-15T20:37:09.676Z,99.90
2023-05-15T20:39:37.369Z,99.90
2023-05-15T20:42:04.987Z,99.90
2023-05-15T20:44:36.348Z,99.90
2023-05-15T20:47:04.001Z,99.90
2023-05-15T20:49:31.552Z,99.90
2023-05-15T20:51:58.544Z,99.90
2023-05-15T20:54:25.471Z,99.90
2023-05-15T20:56:52.271Z,99.90
2023-05-15T20:59:19.500Z,99.90
2023-05-15T21:01:46.471Z,99.90
2023-05-15T21:04:13.478Z,99.90
2023-05-15T21:06:40.843Z,99.90
2023-05-15T21:09:08.427Z,99.90
2023-05-15T21:11:35.484Z,99.90
2023-05-15T21:14:02.640Z,99.90
2023-05-15T21:16:29.752Z,99.90
2023-05-15T21:18:56.637Z,99.90
2023-05-15T21:21:23.693Z,99.90
2023-05-15T21:23:52.780Z,99.90
2023-05-15T21:26:19.522Z,99.90
2023-05-15T21:28:46.754Z,99.90
2023-05-15T21:31:13.622Z,99.90
2023-05-15T21:33:41.533Z,99.90
2023-05-15T21:36:08.636Z,99.90
2023-05-15T21:38:35.526Z,99.90
2023-05-15T21:41:02.309Z,99.90
2023-05-15T21:43:29.099Z,99.90
2023-05-15T21:45:56.632Z,99.90
2023-05-15T21:48:23.610Z,99.90
2023-05-15T21:50:50.734Z,99.90
2023-05-15T21:53:17.614Z,99.90
2023-05-15T21:55:44.701Z,99.90
2023-05-15T21:58:11.568Z,99.90
2023-05-15T22:00:39.755Z,99.90
2023-05-15T22:03:06.602Z,99.90
2023-05-15T22:05:34.189Z,99.90
2023-05-15T22:08:01.346Z,99.90
2023-05-15T22:10:28.522Z,99.90
2023-05-15T22:12:55.676Z,99.90
2023-05-15T22:18:06.736Z,99.90
2023-05-15T22:20:33.763Z,99.90
2023-05-15T22:23:00.602Z,99.90
2023-05-15T22:25:27.777Z,99.90
2023-05-15T22:27:55.041Z,99.90
2023-05-15T22:30:21.852Z,99.90
2023-05-15T22:32:49.048Z,99.90
2023-05-15T22:35:16.170Z,99.90
2023-05-15T22:37:45.338Z,99.90
2023-05-15T22:40:12.891Z,99.90
2023-05-15T22:42:39.774Z,99.90
2023-05-15T22:45:07.609Z,99.90
2023-05-15T22:47:34.465Z,99.90
2023-05-15T22:50:01.713Z,99.90
2023-05-15T22:52:28.477Z,99.90
2023-05-15T22:54:55.391Z,99.90
2023-05-15T22:57:23.238Z,99.90
2023-05-15T22:59:50.018Z,99.90
2023-05-15T23:02:16.938Z,99.90
2023-05-15T23:04:44.125Z,99.90
2023-05-15T23:07:11.189Z,99.90
2023-05-15T23:09:38.055Z,99.90
2023-05-15T23:12:05.568Z,99.90
2023-05-15T23:14:32.551Z,99.90
2023-05-15T23:16:59.274Z,99.90
2023-05-15T23:19:26.390Z,99.90
2023-05-15T23:21:53.497Z,99.90
2023-05-15T23:24:20.447Z,99.90
2023-05-15T23:26:47.986Z,99.90
2023-05-15T23:29:14.845Z,99.90
2023-05-15T23:31:43.092Z,99.90
2023-05-15T23:34:10.125Z,99.90
2023-05-15T23:36:37.218Z,99.90
2023-05-15T23:39:05.399Z,99.90
2023-05-15T23:41:32.380Z,99.90
2023-05-15T23:43:59.200Z,99.90
2023-05-15T23:46:26.372Z,99.90
2023-05-15T23:48:53.180Z,99.90
2023-05-15T23:51:20.815Z,99.90
2023-05-15T23:53:48.840Z,99.90
2023-05-15T23:56:15.850Z,99.90
2023-05-15T23:58:42.589Z,99.90
